sensor_id;sensor_type;location;lat;lon;timestamp;temperature;humidity
16732;DHT22;8484;50.904;9.192;2022-12-16T15:58:18;-4.30;99.90
16732;DHT22;8484;50.904;9.192;2022-12-16T16:01:24;-4.50;99.90
16732;DHT22;8484;50.904;9.192;2022-12-16T16:04:28;-4.60;99.90
16732;DHT22;8484;50.904;9.192;2022-12-16T16:07:31;-4.80;99.90
16732;DHT22;8484;50.904;9.192;2022-12-16T16:10:34;-4.90;99.90
16732;DHT22;8484;50.904;9.192;2022-12-16T16:13:39;-4.80;99.90
16732;DHT22;8484;50.904;9.192;2022-12-16T16:16:42;-5.00;99.90
16732;DHT22;8484;50.904;9.192;2022-12-16T16:19:45;-4.40;99.90
16732;DHT22;8484;50.904;9.192;2022-12-16T16:22:48;-5.10;99.90
16732;DHT22;8484;50.904;9.192;2022-12-16T16:25:51;-5.10;99.90
16732;DHT22;8484;50.904;9.192;2022-12-16T16:28:55;-5.20;99.90
16732;DHT22;8484;50.904;9.192;2022-12-16T16:31:58;-5.10;99.90
16732;DHT22;8484;50.904;9.192;2022-12-16T16:35:03;-5.10;99.90
16732;DHT22;8484;50.904;9.192;2022-12-16T16:38:08;-5.10;99.90
16732;DHT22;8484;50.904;9.192;2022-12-16T16:41:13;-5.20;99.90
16732;DHT22;8484;50.904;9.192;2022-12-16T16:44:18;-5.20;99.90
16732;DHT22;8484;50.904;9.192;2022-12-16T16:47:21;-5.20;99.90
16732;DHT22;8484;50.904;9.192;2022-12-16T16:50:24;-5.20;99.90
16732;DHT22;8484;50.904;9.192;2022-12-16T16:53:27;-5.10;99.90
16732;DHT22;8484;50.904;9.192;2022-12-16T16:56:33;-5.30;99.90
16732;DHT22;8484;50.904;9.192;2022-12-16T16:59:38;-5.50;99.90
16732;DHT22;8484;50.904;9.192;2022-12-16T17:02:41;-5.50;99.90
16732;DHT22;8484;50.904;9.192;2022-12-16T17:05:44;-5.50;99.90
16732;DHT22;8484;50.904;9.192;2022-12-16T17:08:47;-5.50;99.90
16732;DHT22;8484;50.904;9.192;2022-12-16T17:11:50;-5.50;99.90
16732;DHT22;8484;50.904;9.192;2022-12-16T17:14:54;-5.40;99.90
16732;DHT22;8484;50.904;9.192;2022-12-16T17:17:57;-5.40;99.90
16732;DHT22;8484;50.904;9.192;2022-12-16T17:21:00;-5.40;99.90
16732;DHT22;8484;50.904;9.192;2022-12-16T17:24:03;-5.30;99.90
16732;DHT22;8484;50.904;9.192;2022-12-16T17:27:08;-5.30;99.90
16732;DHT22;8484;50.904;9.192;2022-12-16T17:30:18;-5.30;99.90
16732;DHT22;8484;50.904;9.192;2022-12-16T17:33:25;-5.30;99.90
16732;DHT22;8484;50.904;9.192;2022-12-16T17:36:28;-5.30;99.90
16732;DHT22;8484;50.904;9.192;2022-12-16T17:39:31;-5.30;99.90
16732;DHT22;8484;50.904;9.192;2022-12-16T17:42:34;-5.30;99.90
16732;DHT22;8484;50.904;9.192;2022-12-16T17:45:57;-5.30;99.90
16732;DHT22;8484;50.904;9.192;2022-12-16T17:49:00;-5.30;99.90
16732;DHT22;8484;50.904;9.192;2022-12-16T17:52:03;-5.40;99.90
16732;DHT22;8484;50.904;9.192;2022-12-16T17:55:07;-5.40;99.90
16732;DHT22;8484;50.904;9.192;2022-12-16T17:58:10;-5.30;99.90
16732;DHT22;8484;50.904;9.192;2022-12-16T18:01:14;-5.30;99.90
16732;DHT22;8484;50.904;9.192;2022-12-16T18:04:18;-5.40;99.90
16732;DHT22;8484;50.904;9.192;2022-12-16T18:07:21;-5.50;99.90
16732;DHT22;8484;50.904;9.192;2022-12-16T18:10:24;-5.40;99.90
16732;DHT22;8484;50.904;9.192;2022-12-16T18:13:27;-5.40;99.90
16732;DHT22;8484;50.904;9.192;2022-12-16T18:16:31;-5.40;99.90
16732;DHT22;8484;50.904;9.192;2022-12-16T18:19:34;-5.40;99.90
16732;DHT22;8484;50.904;9.192;2022-12-16T18:22:38;-5.40;99.90
16732;DHT22;8484;50.904;9.192;2022-12-16T18:25:41;-5.40;99.90
16732;DHT22;8484;50.904;9.192;2022-12-16T18:28:44;-5.30;99.90
16732;DHT22;8484;50.904;9.192;2022-12-16T18:31:49;-5.30;99.90
16732;DHT22;8484;50.904;9.192;2022-12-16T18:34:52;-5.50;99.90
16732;DHT22;8484;50.904;9.192;2022-12-16T18:37:55;-5.40;99.90
16732;DHT22;8484;50.904;9.192;2022-12-16T18:41:01;-5.40;99.90
16732;DHT22;8484;50.904;9.192;2022-12-16T18:44:12;-5.40;99.90
16732;DHT22;8484;50.904;9.192;2022-12-16T18:47:17;-5.50;99.90
16732;DHT22;8484;50.904;9.192;2022-12-16T18:50:20;-5.50;99.90
16732;DHT22;8484;50.904;9.192;2022-12-16T18:53:23;-5.50;99.90
16732;DHT22;8484;50.904;9.192;2022-12-16T18:56:26;-5.50;99.90
16732;DHT22;8484;50.904;9.192;2022-12-16T18:59:29;-5.50;99.90
16732;DHT22;8484;50.904;9.192;2022-12-16T19:02:34;-5.50;99.90
16732;DHT22;8484;50.904;9.192;2022-12-16T19:05:37;-5.60;99.90
16732;DHT22;8484;50.904;9.192;2022-12-16T19:08:40;-5.10;99.90
16732;DHT22;8484;50.904;9.192;2022-12-16T19:11:43;-5.50;99.90
16732;DHT22;8484;50.904;9.192;2022-12-16T19:14:42;-5.50;99.90
16732;DHT22;8484;50.904;9.192;2022-12-16T19:17:47;-5.60;99.90
16732;DHT22;8484;50.904;9.192;2022-12-16T19:20:53;-5.50;99.90
16732;DHT22;8484;50.904;9.192;2022-12-16T19:23:56;-5.60;99.90
16732;DHT22;8484;50.904;9.192;2022-12-16T19:26:59;-5.50;99.90
16732;DHT22;8484;50.904;9.192;2022-12-16T19:30:03;-5.50;99.90
16732;DHT22;8484;50.904;9.192;2022-12-16T19:33:08;-5.60;99.90
16732;DHT22;8484;50.904;9.192;2022-12-16T19:36:11;-5.50;99.90
16732;DHT22;8484;50.904;9.192;2022-12-16T19:39:14;-5.50;99.90
16732;DHT22;8484;50.904;9.192;2022-12-16T19:42:17;-5.60;99.90
16732;DHT22;8484;50.904;9.192;2022-12-16T19:45:20;-5.60;99.90
16732;DHT22;8484;50.904;9.192;2022-12-16T19:48:25;-5.50;99.90
16732;DHT22;8484;50.904;9.192;2022-12-16T19:51:28;-5.50;99.90
16732;DHT22;8484;50.904;9.192;2022-12-16T19:54:30;-5.50;99.90
16732;DHT22;8484;50.904;9.192;2022-12-16T19:57:33;-5.50;99.90
16732;DHT22;8484;50.904;9.192;2022-12-16T20:00:37;-5.50;99.90
16732;DHT22;8484;50.904;9.192;2022-12-16T20:03:41;-5.40;99.90
16732;DHT22;8484;50.904;9.192;2022-12-16T20:06:44;-5.50;99.90
16732;DHT22;8484;50.904;9.192;2022-12-16T20:09:47;-5.60;99.90
16732;DHT22;8484;50.904;9.192;2022-12-16T20:12:50;-5.60;99.90
16732;DHT22;8484;50.904;9.192;2022-12-16T20:15:59;-5.70;99.90
16732;DHT22;8484;50.904;9.192;2022-12-16T20:19:03;-5.50;99.90
16732;DHT22;8484;50.904;9.192;2022-12-16T20:22:06;-5.40;99.90
16732;DHT22;8484;50.904;9.192;2022-12-16T20:25:09;-5.50;99.90
16732;DHT22;8484;50.904;9.192;2022-12-16T20:28:12;-5.40;99.90
16732;DHT22;8484;50.904;9.192;2022-12-16T20:31:15;-5.50;99.90
16732;DHT22;8484;50.904;9.192;2022-12-16T20:34:20;-5.50;99.90
16732;DHT22;8484;50.904;9.192;2022-12-16T20:37:22;-5.40;99.90
16732;DHT22;8484;50.904;9.192;2022-12-16T20:40:25;-5.50;99.90
16732;DHT22;8484;50.904;9.192;2022-12-16T20:43:28;-5.40;99.90
16732;DHT22;8484;50.904;9.192;2022-12-16T20:46:31;-5.50;99.90
16732;DHT22;8484;50.904;9.192;2022-12-16T20:49:36;-5.60;99.90
16732;DHT22;8484;50.904;9.192;2022-12-16T20:52:39;-5.40;99.90
16732;DHT22;8484;50.904;9.192;2022-12-16T20:55:42;-5.50;99.90
16732;DHT22;8484;50.904;9.192;2022-12-16T20:58:45;-5.50;99.90
16732;DHT22;8484;50.904;9.192;2022-12-16T21:01:50;-5.40;99.90
16732;DHT22;8484;50.904;9.192;2022-12-16T21:04:55;-5.50;99.90
16732;DHT22;8484;50.904;9.192;2022-12-16T21:07:58;-5.60;99.90
16732;DHT22;8484;50.904;9.192;2022-12-16T21:11:01;-5.50;99.90
16732;DHT22;8484;50.904;9.192;2022-12-16T21:14:04;-5.50;99.90
16732;DHT22;8484;50.904;9.192;2022-12-16T21:17:07;-5.00;99.90
16732;DHT22;8484;50.904;9.192;2022-12-16T21:20:12;-5.60;99.90
16732;DHT22;8484;50.904;9.192;2022-12-16T21:23:15;-5.50;99.90
16732;DHT22;8484;50.904;9.192;2022-12-16T21:26:18;-5.60;99.90
16732;DHT22;8484;50.904;9.192;2022-12-16T21:29:21;-5.60;99.90
16732;DHT22;8484;50.904;9.192;2022-12-16T21:32:24;-5.60;99.90
16732;DHT22;8484;50.904;9.192;2022-12-16T21:35:28;-5.70;99.90
16732;DHT22;8484;50.904;9.192;2022-12-16T21:38:31;-5.70;99.90
16732;DHT22;8484;50.904;9.192;2022-12-16T21:41:36;-5.60;99.90
16732;DHT22;8484;50.904;9.192;2022-12-16T21:44:39;-5.60;99.90
16732;DHT22;8484;50.904;9.192;2022-12-16T21:47:43;-5.60;99.90
16732;DHT22;8484;50.904;9.192;2022-12-16T21:50:51;-5.80;99.90
16732;DHT22;8484;50.904;9.192;2022-12-16T21:53:55;-6.00;99.90
16732;DHT22;8484;50.904;9.192;2022-12-16T21:56:58;-6.00;99.90
16732;DHT22;8484;50.904;9.192;2022-12-16T22:00:01;-5.90;99.90
16732;DHT22;8484;50.904;9.192;2022-12-16T22:03:04;-5.90;99.90
16732;DHT22;8484;50.904;9.192;2022-12-16T22:06:05;-5.90;99.90
16732;DHT22;8484;50.904;9.192;2022-12-16T22:09:08;-6.00;99.90
16732;DHT22;8484;50.904;9.192;2022-12-16T22:12:11;-6.10;99.90
16732;DHT22;8484;50.904;9.192;2022-12-16T22:15:14;-6.10;99.90
16732;DHT22;8484;50.904;9.192;2022-12-16T22:18:19;-6.10;99.90
16732;DHT22;8484;50.904;9.192;2022-12-16T22:21:23;-5.90;99.90
16732;DHT22;8484;50.904;9.192;2022-12-16T22:24:37;-5.90;99.90
16732;DHT22;8484;50.904;9.192;2022-12-16T22:27:41;-5.90;99.90
16732;DHT22;8484;50.904;9.192;2022-12-16T22:30:44;-6.00;99.90
16732;DHT22;8484;50.904;9.192;2022-12-16T22:34:04;-6.00;99.90
16732;DHT22;8484;50.904;9.192;2022-12-16T22:37:09;-6.10;99.90
16732;DHT22;8484;50.904;9.192;2022-12-16T22:40:13;-6.30;99.90
16732;DHT22;8484;50.904;9.192;2022-12-16T22:43:16;-6.40;99.90
16732;DHT22;8484;50.904;9.192;2022-12-16T22:46:19;-6.30;99.90
16732;DHT22;8484;50.904;9.192;2022-12-16T22:49:22;-6.10;99.90
16732;DHT22;8484;50.904;9.192;2022-12-16T22:52:26;-5.90;99.90
16732;DHT22;8484;50.904;9.192;2022-12-16T22:55:30;-6.00;99.90
16732;DHT22;8484;50.904;9.192;2022-12-16T22:58:32;-6.10;99.90
16732;DHT22;8484;50.904;9.192;2022-12-16T23:01:36;-6.10;99.90
16732;DHT22;8484;50.904;9.192;2022-12-16T23:04:39;-6.30;99.90
16732;DHT22;8484;50.904;9.192;2022-12-16T23:07:43;-6.20;99.90
16732;DHT22;8484;50.904;9.192;2022-12-16T23:10:53;-6.20;99.90
16732;DHT22;8484;50.904;9.192;2022-12-16T23:13:56;-6.10;99.90
16732;DHT22;8484;50.904;9.192;2022-12-16T23:16:59;-6.20;99.90
16732;DHT22;8484;50.904;9.192;2022-12-16T23:20:03;-6.20;99.90
16732;DHT22;8484;50.904;9.192;2022-12-16T23:23:08;-6.20;99.90
16732;DHT22;8484;50.904;9.192;2022-12-16T23:26:11;-6.20;99.90
16732;DHT22;8484;50.904;9.192;2022-12-16T23:29:14;-6.30;99.90
16732;DHT22;8484;50.904;9.192;2022-12-16T23:32:18;-6.30;99.90
16732;DHT22;8484;50.904;9.192;2022-12-16T23:35:21;-6.50;99.90
16732;DHT22;8484;50.904;9.192;2022-12-16T23:38:25;-6.50;99.90
16732;DHT22;8484;50.904;9.192;2022-12-16T23:41:36;-6.40;99.90
16732;DHT22;8484;50.904;9.192;2022-12-16T23:44:41;-6.40;99.90
16732;DHT22;8484;50.904;9.192;2022-12-16T23:47:44;-6.40;99.90
16732;DHT22;8484;50.904;9.192;2022-12-16T23:50:47;-6.40;99.90
16732;DHT22;8484;50.904;9.192;2022-12-16T23:53:51;-6.40;99.90
16732;DHT22;8484;50.904;9.192;2022-12-16T23:56:54;-6.40;99.90
16732;DHT22;8484;50.904;9.192;2022-12-16T23:59:57;-6.30;99.90
